Time;durP1;ratioP1;P1;durP2;ratioP2;P2;SDS_P1;SDS_P2;PMS_P1;PMS_P2;Temp;Humidity;BMP_temperature;BMP_pressure;BME280_temperature;BME280_humidity;BME280_pressure;Samples;Min_cycle;Max_cycle;Signal;HPM_P1;HPM_P2
2023/01/10 00:00:28;;;;;;;5.65;4.22;;;;;;;16.32;59.61;98870.59;5112196;28;20078;-59
2023/01/10 00:02:56;;;;;;;6.72;4.40;;;;;;;16.29;59.92;98871.72;5111490;28;20912;-57
2023/01/10 00:05:24;;;;;;;6.22;4.28;;;;;;;16.27;59.59;98872.91;5112200;28;20552;-57
2023/01/10 00:07:52;;;;;;;6.25;4.20;;;;;;;16.25;59.81;98869.53;5112256;28;20550;-57
2023/01/10 00:10:20;;;;;;;5.75;3.92;;;;;;;16.22;59.53;98876.09;5112402;28;20051;-57
2023/01/10 00:15:36;;;;;;;6.80;4.20;;;;;;;16.16;59.71;98868.66;5112234;28;20044;-56
2023/01/10 00:18:04;;;;;;;5.53;4.05;;;;;;;16.14;59.92;98873.38;5112250;28;20043;-57
2023/01/10 00:20:33;;;;;;;6.00;4.25;;;;;;;16.11;59.94;98867.44;5093964;28;20044;-56
2023/01/10 00:23:02;;;;;;;6.05;4.25;;;;;;;16.10;59.86;98865.75;5112066;28;20039;-57
2023/01/10 00:25:32;;;;;;;6.22;4.45;;;;;;;16.08;60.11;98867.78;5112079;28;20047;-57
2023/01/10 00:28:04;;;;;;;6.80;4.38;;;;;;;16.05;60.10;98873.50;5112079;28;20046;-57
2023/01/10 00:30:34;;;;;;;6.65;4.43;;;;;;;16.03;60.02;98868.28;5112286;28;20040;-57
2023/01/10 00:33:04;;;;;;;5.47;4.07;;;;;;;15.99;60.07;98862.34;5112025;28;20074;-58
2023/01/10 00:35:32;;;;;;;6.78;4.38;;;;;;;15.98;60.11;98862.53;5112412;28;20116;-57
2023/01/10 00:38:05;;;;;;;5.70;4.10;;;;;;;15.95;60.12;98852.94;5112375;28;20048;-57
2023/01/10 00:40:34;;;;;;;5.60;3.88;;;;;;;15.94;60.04;98856.63;5111920;28;20563;-58
2023/01/10 00:45:47;;;;;;;5.25;3.78;;;;;;;15.91;60.13;98853.41;5112010;28;20063;-57
2023/01/10 00:48:17;;;;;;;5.43;4.00;;;;;;;15.89;59.96;98858.94;5111922;28;20139;-59
2023/01/10 00:50:46;;;;;;;5.47;3.80;;;;;;;15.86;59.95;98859.28;5111878;28;20046;-58
2023/01/10 00:53:14;;;;;;;5.97;4.13;;;;;;;15.85;60.32;98865.66;5111727;28;20044;-59
2023/01/10 00:55:42;;;;;;;5.03;3.78;;;;;;;15.83;60.36;98864.97;5111887;28;20052;-56
2023/01/10 00:58:10;;;;;;;5.05;3.80;;;;;;;15.80;60.15;98859.91;5111745;28;20052;-59
2023/01/10 01:00:39;;;;;;;5.65;4.10;;;;;;;15.80;60.37;98862.59;5111737;28;20051;-57
2023/01/10 01:03:10;;;;;;;5.65;4.00;;;;;;;15.77;60.13;98860.22;5111593;28;20044;-57
2023/01/10 01:05:41;;;;;;;6.22;3.95;;;;;;;15.76;60.14;98861.22;5111609;28;20504;-57
2023/01/10 01:08:14;;;;;;;5.93;3.90;;;;;;;15.74;60.40;98860.56;5111664;28;20415;-57
2023/01/10 01:10:42;;;;;;;5.30;3.85;;;;;;;15.72;60.45;98862.53;5111684;28;20054;-57
2023/01/10 01:13:13;;;;;;;5.28;3.75;;;;;;;15.71;60.37;98860.84;5111638;28;20045;-59
2023/01/10 01:15:41;;;;;;;5.05;3.58;;;;;;;15.69;60.49;98852.09;5096723;28;20044;-57
2023/01/10 01:18:11;;;;;;;5.43;3.53;;;;;;;15.68;60.49;98853.09;5115255;28;20039;-59
2023/01/10 01:20:42;;;;;;;5.60;3.47;;;;;;;15.65;60.42;98853.44;5115346;28;20487;-59
2023/01/10 01:23:10;;;;;;;5.63;4.05;;;;;;;15.65;60.52;98856.13;5115277;28;20075;-57
2023/01/10 01:25:38;;;;;;;5.30;3.65;;;;;;;15.63;60.41;98858.97;5115248;28;20122;-57
2023/01/10 01:28:07;;;;;;;6.18;4.38;;;;;;;15.61;60.26;98852.06;5115163;28;20071;-57
2023/01/10 01:30:35;;;;;;;5.28;3.47;;;;;;;15.57;60.54;98838.06;5115123;28;20490;-57
2023/01/10 01:33:04;;;;;;;5.10;3.63;;;;;;;15.57;60.67;98847.97;5115107;28;20039;-57
2023/01/10 01:35:32;;;;;;;5.75;3.83;;;;;;;15.54;60.49;98854.50;5115133;28;20047;-57
2023/01/10 01:38:02;;;;;;;5.53;3.50;;;;;;;15.54;60.54;98857.19;5096614;28;20481;-57
2023/01/10 01:40:30;;;;;;;4.90;3.55;;;;;;;15.53;60.64;98851.97;5114889;28;20533;-58
2023/01/10 01:42:58;;;;;;;4.88;3.67;;;;;;;15.51;60.53;98845.91;5114728;28;20090;-57
2023/01/10 01:45:36;;;;;;;5.78;3.97;;;;;;;15.50;60.55;98857.66;5114750;28;20047;-59
2023/01/10 01:48:12;;;;;;;5.15;3.53;;;;;;;15.48;60.70;98848.91;5096568;28;20047;-59
2023/01/10 01:50:46;;;;;;;5.05;3.30;;;;;;;15.46;60.89;98852.59;5114751;28;20039;-59
2023/01/10 01:53:20;;;;;;;4.68;3.13;;;;;;;15.44;60.63;98854.63;5114646;28;20490;-57
2023/01/10 01:55:50;;;;;;;5.25;3.20;;;;;;;15.44;60.73;98849.25;5114645;28;20618;-59
2023/01/10 01:58:25;;;;;;;5.45;3.58;;;;;;;15.42;60.80;98851.22;5114512;28;20051;-57
2023/01/10 02:00:53;;;;;;;4.90;3.20;;;;;;;15.42;60.81;98861.97;5114515;28;20048;-59
2023/01/10 02:03:22;;;;;;;5.40;3.47;;;;;;;15.39;60.80;98867.66;5114408;28;20043;-59
2023/01/10 02:05:50;;;;;;;5.35;3.33;;;;;;;15.38;60.70;98859.75;5114880;28;20051;-60
2023/01/10 02:08:20;;;;;;;4.65;3.20;;;;;;;15.36;60.80;98867.13;5114344;28;20051;-59
2023/01/10 02:10:54;;;;;;;4.97;3.47;;;;;;;15.35;60.81;98877.03;5114322;28;20122;-58
2023/01/10 02:13:25;;;;;;;4.28;3.25;;;;;;;15.34;60.92;98886.06;5114282;28;20078;-59
2023/01/10 02:15:54;;;;;;;5.30;3.53;;;;;;;15.33;60.79;98884.38;5114294;28;20040;-60
2023/01/10 02:18:24;;;;;;;5.25;3.40;;;;;;;15.32;61.01;98876.50;5096233;28;20047;-59
2023/01/10 02:21:20;;;;;;;4.53;3.28;;;;;;;15.30;60.93;98879.34;5095828;28;20047;-59
2023/01/10 02:24:17;;;;;;;4.32;2.97;;;;;;;15.29;61.06;98877.66;5095522;28;20047;-59
2023/01/10 02:27:11;;;;;;;4.95;3.40;;;;;;;15.27;61.00;98879.66;5113379;28;20445;-59
2023/01/10 02:30:11;;;;;;;4.28;2.83;;;;;;;15.26;60.84;98872.59;5103958;28;20539;-59
2023/01/10 02:32:45;;;;;;;4.32;2.70;;;;;;;15.24;60.86;98871.88;5080288;28;20059;-58
2023/01/10 02:36:10;;;;;;;5.40;3.25;;;;;;;15.23;61.00;98867.53;5113774;28;20071;-59
2023/01/10 02:38:51;;;;;;;4.43;2.70;;;;;;;15.21;61.02;98864.16;5107626;28;20060;-57
2023/01/10 02:41:27;;;;;;;4.18;2.75;;;;;;;15.18;61.12;98864.47;5095315;28;20047;-58
2023/01/10 02:44:02;;;;;;;4.30;2.90;;;;;;;15.18;61.04;98869.84;5113558;28;20043;-59
2023/01/10 02:46:32;;;;;;;4.03;2.60;;;;;;;15.17;61.15;98866.31;5113694;28;20068;-59
2023/01/10 02:49:01;;;;;;;4.78;3.00;;;;;;;15.14;61.10;98863.06;5113645;28;20044;-59
2023/01/10 02:51:32;;;;;;;4.10;2.67;;;;;;;15.15;61.20;98870.13;5113613;28;20051;-58
2023/01/10 02:54:07;;;;;;;4.22;2.85;;;;;;;15.13;61.29;98872.97;5113442;28;20048;-58
2023/01/10 02:57:05;;;;;;;5.22;2.90;;;;;;;15.12;61.20;98870.44;5113462;28;20089;-59
2023/01/10 02:59:59;;;;;;;4.47;2.75;;;;;;;15.10;61.28;98864.41;5113306;28;20135;-58
2023/01/10 03:02:40;;;;;;;4.25;2.63;;;;;;;15.07;61.40;98867.41;5113297;28;20063;-59
2023/01/10 03:05:18;;;;;;;4.05;2.35;;;;;;;15.08;61.30;98869.09;5113169;28;20126;-59
2023/01/10 03:07:53;;;;;;;3.85;2.63;;;;;;;15.06;61.33;98871.09;5113181;28;20092;-59
2023/01/10 03:10:29;;;;;;;3.97;2.50;;;;;;;15.04;61.29;98884.63;5113137;28;20093;-59
2023/01/10 03:13:01;;;;;;;3.95;2.83;;;;;;;15.04;61.35;98889.16;5113164;28;20050;-58
2023/01/10 03:15:35;;;;;;;4.00;2.83;;;;;;;15.02;61.23;98899.22;5113298;28;20050;-59
2023/01/10 03:18:08;;;;;;;4.18;2.80;;;;;;;15.01;61.21;98905.59;5113040;28;20048;-58
2023/01/10 03:20:42;;;;;;;3.92;2.50;;;;;;;15.02;61.16;98899.22;5113066;28;20077;-57
2023/01/10 03:23:12;;;;;;;4.18;2.55;;;;;;;15.00;61.23;98893.16;5094741;28;20039;-59
2023/01/10 03:25:43;;;;;;;3.97;2.70;;;;;;;14.98;61.24;98890.66;5112755;28;20050;-58
2023/01/10 03:28:15;;;;;;;4.00;2.70;;;;;;;14.99;61.18;98888.81;5112956;28;20044;-58
2023/01/10 03:30:49;;;;;;;4.43;2.83;;;;;;;14.97;61.22;98898.84;5112694;28;20464;-59
2023/01/10 03:33:21;;;;;;;4.20;2.60;;;;;;;14.96;61.25;98891.78;5112727;28;20476;-59
2023/01/10 03:36:04;;;;;;;4.13;2.65;;;;;;;14.93;61.10;98886.72;5094342;28;20056;-59
2023/01/10 03:38:38;;;;;;;;;;;;;;;14.92;61.42;98896.63;5112163;28;20100;-58
2023/01/10 03:41:14;;;;;;;4.10;2.55;;;;;;;14.93;61.32;98898.31;5112693;28;20276;-58
2023/01/10 03:46:38;;;;;;;4.43;2.80;;;;;;;14.91;61.35;98899.47;5112513;28;20043;-58
2023/01/10 03:49:09;;;;;;;4.03;2.53;;;;;;;14.90;61.46;98901.31;5112537;28;20088;-58
2023/01/10 03:51:39;;;;;;;3.72;2.40;;;;;;;14.87;61.50;98899.78;5112566;28;20105;-58
2023/01/10 03:54:08;;;;;;;3.88;2.42;;;;;;;14.87;61.46;98898.94;5112539;28;20078;-58
2023/01/10 03:56:46;;;;;;;3.60;2.47;;;;;;;14.87;61.45;98902.47;5112486;28;20455;-58
2023/01/10 03:59:14;;;;;;;3.42;2.22;;;;;;;14.86;61.35;98908.81;5112363;28;20043;-59
2023/01/10 04:01:43;;;;;;;3.80;2.45;;;;;;;14.85;61.48;98906.25;5112647;28;20050;-58
2023/01/10 04:04:11;;;;;;;3.38;2.28;;;;;;;14.85;61.24;98928.59;5112270;28;20119;-58
2023/01/10 04:06:41;;;;;;;5.07;2.53;;;;;;;14.84;61.34;98926.06;5112381;28;20442;-59
2023/01/10 04:09:09;;;;;;;3.65;2.20;;;;;;;14.82;61.46;98928.91;5112320;28;20100;-58
2023/01/10 04:11:38;;;;;;;4.40;2.72;;;;;;;14.82;61.36;98934.25;5093940;28;20050;-58
2023/01/10 04:14:06;;;;;;;4.18;2.78;;;;;;;14.81;61.50;98929.91;5112089;28;20078;-58
2023/01/10 04:16:34;;;;;;;4.32;2.40;;;;;;;14.80;61.56;98920.16;5112043;28;20048;-58
2023/01/10 04:19:02;;;;;;;3.90;2.30;;;;;;;14.79;61.60;98910.41;5112281;28;20463;-58
2023/01/10 04:21:30;;;;;;;3.70;2.40;;;;;;;14.78;61.59;98906.06;5112164;28;20040;-58
2023/01/10 04:24:00;;;;;;;3.30;2.15;;;;;;;14.77;61.54;98914.25;5112069;28;20571;-58
2023/01/10 04:26:28;;;;;;;3.70;2.30;;;;;;;14.76;61.43;98918.75;5112037;28;20050;-59
2023/01/10 04:28:56;;;;;;;3.58;2.35;;;;;;;14.74;61.68;98910.00;5112048;28;20040;-58
2023/01/10 04:31:25;;;;;;;4.47;2.25;;;;;;;14.73;61.72;98916.38;5112024;28;20122;-58
2023/01/10 04:33:54;;;;;;;4.00;2.38;;;;;;;14.74;61.51;98912.69;5112089;28;20044;-58
2023/01/10 04:36:22;;;;;;;3.92;2.42;;;;;;;14.73;61.48;98913.69;5111961;28;20098;-58
2023/01/10 04:38:50;;;;;;;3.47;2.20;;;;;;;14.74;61.58;98912.69;5111953;28;20051;-58
2023/01/10 04:41:19;;;;;;;3.70;2.25;;;;;;;14.76;61.75;98916.06;5111885;28;20044;-58
2023/01/10 04:43:48;;;;;;;4.05;2.53;;;;;;;14.81;62.00;98916.47;5111694;28;20408;-58
2023/01/10 04:46:17;;;;;;;3.92;2.50;;;;;;;14.93;62.28;98924.31;5111798;28;20078;-58
2023/01/10 04:48:45;;;;;;;3.80;2.17;;;;;;;15.03;62.28;98930.44;5112284;28;20507;-58
2023/01/10 04:51:14;;;;;;;4.55;2.47;;;;;;;15.15;62.20;98934.59;5115865;28;20108;-58
2023/01/10 04:53:42;;;;;;;3.47;2.25;;;;;;;15.28;62.17;98935.06;5115753;28;20464;-58
2023/01/10 04:56:16;;;;;;;4.28;2.25;;;;;;;15.39;61.99;98937.50;5097427;28;20054;-58
2023/01/10 04:58:46;;;;;;;3.55;2.20;;;;;;;15.50;61.87;98943.66;5115805;28;20052;-58
2023/01/10 05:01:16;;;;;;;3.30;2.10;;;;;;;15.61;61.74;98944.28;5097293;28;20043;-58
2023/01/10 05:03:46;;;;;;;3.08;2.00;;;;;;;15.70;61.67;98945.19;5115749;28;20048;-58
2023/01/10 05:06:15;;;;;;;3.38;2.03;;;;;;;15.76;61.60;98952.63;5115376;28;20050;-58
2023/01/10 05:08:43;;;;;;;3.30;2.08;;;;;;;15.81;61.46;98963.75;5115534;28;20472;-58
2023/01/10 05:11:12;;;;;;;2.42;1.77;;;;;;;15.83;61.41;98960.94;5115545;28;20405;-58
2023/01/10 05:13:41;;;;;;;3.92;2.10;;;;;;;15.85;61.43;98970.50;5115388;28;20039;-58
2023/01/10 05:16:10;;;;;;;2.78;1.90;;;;;;;15.84;61.61;98963.44;5097120;28;20474;-58
2023/01/10 05:18:38;;;;;;;3.35;2.00;;;;;;;15.85;61.47;98970.50;5115334;28;20072;-58
2023/01/10 05:21:08;;;;;;;3.75;1.80;;;;;;;15.86;61.57;98982.97;5115247;28;20515;-57
2023/01/10 05:23:37;;;;;;;3.00;1.70;;;;;;;15.83;61.54;98980.59;5115285;28;20051;-57
2023/01/10 05:26:06;;;;;;;3.33;2.08;;;;;;;15.84;61.54;98992.19;5096732;28;20139;-57
2023/01/10 05:28:35;;;;;;;3.80;1.92;;;;;;;15.81;61.55;98990.63;5115147;28;20075;-58
2023/01/10 05:31:05;;;;;;;3.78;1.85;;;;;;;15.79;61.60;99003.38;5115046;28;20059;-58
2023/01/10 05:33:35;;;;;;;3.25;1.88;;;;;;;15.78;61.66;98995.47;5115285;28;20047;-58
2023/01/10 05:36:04;;;;;;;3.47;2.10;;;;;;;15.76;61.62;98998.34;5114941;28;20047;-57
2023/01/10 05:38:33;;;;;;;2.42;1.73;;;;;;;15.73;61.66;98993.28;5114990;28;20050;-57
2023/01/10 05:41:01;;;;;;;2.80;1.60;;;;;;;15.71;61.81;98992.56;5096543;28;20378;-58
2023/01/10 05:43:29;;;;;;;3.50;1.80;;;;;;;15.69;61.77;98987.34;5114619;28;20055;-58
2023/01/10 05:45:57;;;;;;;2.83;1.70;;;;;;;15.68;61.85;98982.97;5096187;28;20108;-57
2023/01/10 05:48:26;;;;;;;2.88;1.80;;;;;;;15.66;61.80;98981.44;5114473;28;20472;-58
2023/01/10 05:50:56;;;;;;;2.92;1.70;;;;;;;15.64;61.77;98989.69;5114486;28;20050;-58
2023/01/10 05:53:24;;;;;;;2.35;1.42;;;;;;;15.62;61.84;98996.19;5096292;28;20052;-58
2023/01/10 05:55:54;;;;;;;2.95;1.80;;;;;;;15.61;61.73;99005.25;5114552;28;20043;-58
2023/01/10 05:58:22;;;;;;;3.75;1.70;;;;;;;15.58;61.87;99006.38;5114790;28;20054;-58
2023/01/10 06:00:51;;;;;;;3.08;1.73;;;;;;;15.56;61.78;99012.91;5113189;28;20051;-59
2023/01/10 06:03:19;;;;;;;3.10;1.58;;;;;;;15.55;61.68;99013.91;5095888;28;20066;-58
2023/01/10 06:05:47;;;;;;;3.22;1.73;;;;;;;15.53;61.76;99013.19;5113911;28;20108;-58
2023/01/10 06:08:17;;;;;;;2.50;1.55;;;;;;;15.51;61.63;99020.56;5098914;28;20057;-58
2023/01/10 06:10:45;;;;;;;2.65;1.48;;;;;;;15.47;61.73;99028.09;5093607;28;20399;-58
2023/01/10 06:13:14;;;;;;;3.75;1.63;;;;;;;15.48;61.63;99037.00;5104711;28;20056;-59
2023/01/10 06:15:42;;;;;;;3.03;1.73;;;;;;;15.46;61.52;99034.50;5093704;28;20040;-58
2023/01/10 06:18:11;;;;;;;2.70;1.48;;;;;;;15.44;61.54;99042.69;5081909;28;20040;-58
2023/01/10 06:20:39;;;;;;;2.50;1.48;;;;;;;15.42;61.52;99052.72;5095714;28;20055;-59
2023/01/10 06:23:08;;;;;;;2.50;1.55;;;;;;;15.41;61.40;99056.41;5113990;28;20044;-58
2023/01/10 06:25:39;;;;;;;2.55;1.60;;;;;;;15.39;61.38;99058.41;5113616;28;20048;-59
2023/01/10 06:28:08;;;;;;;2.80;1.70;;;;;;;15.38;61.45;99066.63;5095306;28;20047;-57
2023/01/10 06:30:36;;;;;;;2.60;1.73;;;;;;;15.38;61.90;99075.53;5113579;28;20059;-58
2023/01/10 06:33:06;;;;;;;3.15;1.35;;;;;;;15.35;61.68;99070.47;5111467;28;20328;-57
2023/01/10 06:35:35;;;;;;;3.13;1.58;;;;;;;15.33;61.80;99075.13;5113273;28;20055;-58
2023/01/10 06:38:03;;;;;;;2.50;1.58;;;;;;;15.32;61.83;99076.13;5093938;28;20044;-59
2023/01/10 06:40:32;;;;;;;2.90;1.40;;;;;;;15.29;61.78;99081.81;5112102;28;20101;-59
2023/01/10 06:43:01;;;;;;;2.25;1.50;;;;;;;15.27;61.78;99078.44;5112969;28;20048;-59
2023/01/10 06:45:29;;;;;;;3.65;1.50;;;;;;;15.26;61.67;99076.75;5112681;28;20046;-60
2023/01/10 06:47:58;;;;;;;3.45;1.70;;;;;;;15.24;61.79;99077.88;5113351;28;20051;-60
2023/01/10 06:50:27;;;;;;;2.50;1.52;;;;;;;15.22;61.77;99086.09;5104268;28;20506;-59
2023/01/10 06:52:57;;;;;;;2.45;1.38;;;;;;;15.20;61.90;99082.72;5092633;28;20044;-59
2023/01/10 06:55:25;;;;;;;2.63;1.52;;;;;;;15.19;62.08;99083.72;5092706;28;20067;-59
2023/01/10 06:57:57;;;;;;;2.65;1.48;;;;;;;15.17;62.03;99089.25;5092666;28;20127;-59
2023/01/10 07:00:27;;;;;;;2.58;1.55;;;;;;;15.17;61.96;99099.16;5092608;28;20485;-59
2023/01/10 07:02:58;;;;;;;2.67;1.50;;;;;;;15.15;62.11;99103.78;5092651;28;20067;-59
2023/01/10 07:05:27;;;;;;;2.85;1.60;;;;;;;15.13;62.23;99114.69;5092602;28;20047;-59
2023/01/10 07:07:57;;;;;;;2.67;1.52;;;;;;;15.11;61.99;99116.69;5092497;28;20528;-58
2023/01/10 07:10:25;;;;;;;2.38;1.40;;;;;;;15.11;62.17;99131.97;5092321;28;20089;-59
2023/01/10 07:12:55;;;;;;;3.28;1.40;;;;;;;15.08;62.21;99137.63;5092319;28;20048;-59
2023/01/10 07:15:23;;;;;;;2.58;1.52;;;;;;;15.07;62.25;99141.31;5074357;28;20055;-58
2023/01/10 07:17:53;;;;;;;2.80;1.50;;;;;;;15.05;62.27;99143.28;5074242;28;20059;-59
2023/01/10 07:20:21;;;;;;;2.38;1.52;;;;;;;15.04;62.35;99152.34;5074351;28;20070;-58
2023/01/10 07:22:53;;;;;;;1.90;1.27;;;;;;;15.01;62.52;99158.84;5092505;28;20054;-59
2023/01/10 07:25:21;;;;;;;3.05;1.50;;;;;;;15.01;62.26;99163.38;5092410;28;20093;-60
2023/01/10 07:27:49;;;;;;;2.38;1.40;;;;;;;15.01;62.27;99163.38;5092215;28;20055;-59
2023/01/10 07:30:18;;;;;;;3.03;1.40;;;;;;;14.99;62.29;99160.00;5092277;28;20051;-59
2023/01/10 07:32:52;;;;;;;2.83;1.42;;;;;;;14.96;62.27;99161.16;5092384;28;20497;-59
2023/01/10 07:35:21;;;;;;;2.80;1.30;;;;;;;14.97;62.34;99170.88;5092274;28;20040;-59
2023/01/10 07:37:50;;;;;;;3.10;1.50;;;;;;;14.96;62.17;99171.88;5092138;28;20071;-59
2023/01/10 07:40:18;;;;;;;1.85;1.17;;;;;;;14.94;62.41;99184.59;5098396;28;20047;-59
2023/01/10 07:42:46;;;;;;;3.13;1.50;;;;;;;14.92;62.33;99191.94;5112242;28;20148;-59
2023/01/10 07:45:15;;;;;;;2.22;1.40;;;;;;;14.91;62.30;99194.78;5093844;28;20055;-60
2023/01/10 07:47:43;;;;;;;3.67;1.48;;;;;;;14.89;62.23;99203.84;5091171;28;20044;-60
2023/01/10 07:50:11;;;;;;;2.47;1.17;;;;;;;14.88;62.19;99212.03;5091576;28;20044;-60
2023/01/10 07:52:41;;;;;;;2.15;1.30;;;;;;;14.86;62.42;99219.38;5091856;28;20054;-59
2023/01/10 07:55:09;;;;;;;2.25;1.40;;;;;;;14.86;62.36;99216.69;5091852;28;20054;-60
2023/01/10 07:57:37;;;;;;;1.70;1.17;;;;;;;14.83;62.43;99225.88;5073709;28;20131;-60
2023/01/10 08:00:07;;;;;;;3.00;1.45;;;;;;;14.82;62.48;99234.94;5092180;28;20054;-59
2023/01/10 08:02:35;;;;;;;2.97;1.30;;;;;;;14.79;62.44;99237.91;5091873;28;20051;-60
2023/01/10 08:05:04;;;;;;;2.03;1.20;;;;;;;14.77;62.60;99242.59;5092012;28;20048;-59
2023/01/10 08:07:33;;;;;;;1.85;1.33;;;;;;;14.76;62.56;99251.59;5091727;28;20100;-60
2023/01/10 08:10:03;;;;;;;2.17;1.40;;;;;;;14.75;62.63;99249.91;5091719;28;20062;-59
2023/01/10 08:12:31;;;;;;;2.35;1.20;;;;;;;14.74;62.78;99261.63;5091730;28;20050;-59
2023/01/10 08:14:59;;;;;;;2.33;1.40;;;;;;;14.74;62.51;99272.38;5091654;28;20416;-59
2023/01/10 08:17:27;;;;;;;2.72;1.63;;;;;;;14.73;62.66;99278.72;5091697;28;20051;-59
2023/01/10 08:19:56;;;;;;;2.97;1.30;;;;;;;14.72;62.56;99276.19;5073535;28;20048;-59
2023/01/10 08:22:24;;;;;;;2.55;1.38;;;;;;;14.72;62.43;99286.94;5091655;28;20505;-59
2023/01/10 08:24:55;;;;;;;2.00;1.25;;;;;;;14.70;62.52;99295.13;5094090;28;20389;-59
2023/01/10 08:27:25;;;;;;;2.05;1.10;;;;;;;14.69;62.58;99304.19;5095779;28;20055;-59
2023/01/10 08:29:53;;;;;;;2.75;1.23;;;;;;;14.68;62.62;99302.47;5095969;28;20089;-59
2023/01/10 08:32:21;;;;;;;2.83;1.17;;;;;;;14.66;62.61;99304.44;5077524;28;20420;-59
2023/01/10 08:34:49;;;;;;;2.70;1.15;;;;;;;14.65;62.79;99307.28;5095598;28;20055;-59
2023/01/10 08:37:17;;;;;;;1.95;1.00;;;;;;;14.65;62.57;99313.47;5095535;28;20079;-59
2023/01/10 08:39:46;;;;;;;1.80;1.02;;;;;;;14.64;62.74;99316.31;5096008;28;20093;-59
2023/01/10 08:42:15;;;;;;;2.00;1.00;;;;;;;14.62;62.81;99319.13;5095533;28;20052;-59
2023/01/10 08:44:44;;;;;;;2.13;1.13;;;;;;;14.62;62.65;99335.25;5095527;28;20040;-59
2023/01/10 08:47:13;;;;;;;2.92;1.30;;;;;;;14.60;62.67;99339.91;5095419;28;20048;-59
2023/01/10 08:49:45;;;;;;;2.85;1.15;;;;;;;14.60;62.84;99339.91;5077091;28;20504;-59
2023/01/10 08:52:14;;;;;;;3.17;1.38;;;;;;;14.58;62.78;99342.75;5095346;28;20067;-59
2023/01/10 08:54:42;;;;;;;2.20;1.17;;;;;;;14.58;62.55;99353.47;5095281;28;20109;-60
2023/01/10 08:57:10;;;;;;;2.20;1.17;;;;;;;14.58;62.66;99360.69;5095287;28;20408;-59
2023/01/10 08:59:38;;;;;;;2.05;1.00;;;;;;;14.56;62.60;99365.31;5095285;28;20051;-59
2023/01/10 09:02:11;;;;;;;2.33;1.20;;;;;;;14.55;62.73;99372.50;5094960;28;20055;-60
2023/01/10 09:04:40;;;;;;;2.17;1.30;;;;;;;14.54;62.69;99375.34;5095486;28;20055;-59
2023/01/10 09:07:08;;;;;;;2.30;1.10;;;;;;;14.53;62.79;99387.06;5095067;28;20050;-60
2023/01/10 09:09:36;;;;;;;2.85;1.13;;;;;;;14.52;62.61;99388.91;5094889;28;20142;-59
2023/01/10 09:12:53;;;;;;;1.58;1.08;;;;;;;14.51;62.79;99392.56;5094390;28;20116;-60
2023/01/10 09:14:53;;;;;;;1.52;1.02;;;;;;;14.50;62.72;99406.13;5094015;28;20040;-59
2023/01/10 09:17:22;;;;;;;2.00;1.10;;;;;;;14.51;62.64;99407.81;5076074;28;20044;-60
2023/01/10 09:19:51;;;;;;;1.80;1.00;;;;;;;14.49;62.88;99409.81;5094467;28;20111;-60
2023/01/10 09:22:19;;;;;;;1.73;1.15;;;;;;;14.48;62.85;99416.16;5076040;28;20488;-59
2023/01/10 09:24:47;;;;;;;2.42;1.20;;;;;;;14.47;62.75;99422.47;5094224;28;20078;-59
2023/01/10 09:27:15;;;;;;;2.00;1.20;;;;;;;14.45;62.79;99425.31;5094196;28;20457;-59
2023/01/10 09:29:43;;;;;;;1.83;1.08;;;;;;;14.45;62.75;99429.81;5094377;28;20546;-60
2023/01/10 09:32:12;;;;;;;2.08;1.17;;;;;;;14.43;62.78;99443.34;5094755;28;20048;-59
2023/01/10 09:34:41;;;;;;;1.48;0.90;;;;;;;14.42;62.77;99436.28;5094589;28;20424;-60
2023/01/10 09:37:09;;;;;;;1.88;1.20;;;;;;;14.40;62.78;99448.16;5076330;28;20516;-60
2023/01/10 09:39:37;;;;;;;1.55;1.00;;;;;;;14.41;62.83;99447.16;5094484;28;20047;-60
2023/01/10 09:42:27;;;;;;;1.63;1.00;;;;;;;14.39;62.84;99446.47;5094319;28;20083;-60
2023/01/10 09:45:06;;;;;;;1.50;1.00;;;;;;;14.37;62.69;99464.50;5094297;28;20503;-60
2023/01/10 09:47:42;;;;;;;1.85;1.00;;;;;;;14.37;62.83;99461.81;5094258;28;20040;-60
2023/01/10 09:50:20;;;;;;;1.58;1.10;;;;;;;14.36;63.00;99469.03;5094251;28;20089;-59
2023/01/10 09:52:53;;;;;;;1.05;0.80;;;;;;;14.35;62.84;99477.22;5094148;28;20397;-58
2023/01/10 09:55:26;;;;;;;2.13;1.00;;;;;;;14.33;62.80;99483.56;5094155;28;20520;-59
2023/01/10 09:57:57;;;;;;;2.10;1.00;;;;;;;14.32;62.88;99484.53;5075946;28;20155;-59
2023/01/10 10:00:35;;;;;;;2.70;1.10;;;;;;;14.31;62.92;99490.91;5094115;28;20044;-58
2023/01/10 10:03:19;;;;;;;2.08;1.17;;;;;;;14.30;63.01;99491.03;5094068;28;20047;-59
2023/01/10 10:05:49;;;;;;;1.85;1.00;;;;;;;14.29;63.00;99497.41;5094121;28;20074;-58
2023/01/10 10:08:23;;;;;;;2.53;1.00;;;;;;;14.26;63.04;99490.44;5093976;28;20399;-60
2023/01/10 10:11:00;;;;;;;1.38;0.80;;;;;;;14.26;62.96;99501.16;5093977;28;20067;-58
2023/01/10 10:13:41;;;;;;;2.20;1.10;;;;;;;14.24;62.86;99487.03;5075566;28;20048;-60
2023/01/10 10:16:17;;;;;;;1.63;0.95;;;;;;;14.23;62.84;99504.13;5093551;28;20059;-58
2023/01/10 10:18:54;;;;;;;2.08;0.93;;;;;;;14.22;62.99;99499.75;5075552;28;20048;-58
2023/01/10 10:21:33;;;;;;;1.73;1.00;;;;;;;14.23;62.92;99500.59;5093613;28;20489;-59
2023/01/10 10:24:33;;;;;;;2.15;1.02;;;;;;;14.22;62.85;99493.53;5093563;28;20063;-58
2023/01/10 10:27:13;;;;;;;1.92;1.00;;;;;;;14.21;62.95;99500.72;5075463;28;20554;-59
2023/01/10 10:30:15;;;;;;;1.83;1.08;;;;;;;14.20;63.03;99504.41;5075226;28;20059;-58
2023/01/10 10:33:03;;;;;;;2.65;1.10;;;;;;;14.19;62.72;99520.63;5089337;28;20507;-60
2023/01/10 10:35:36;;;;;;;2.13;0.93;;;;;;;14.18;62.95;99522.44;5093537;28;20392;-58
2023/01/10 10:38:13;;;;;;;1.60;0.90;;;;;;;14.17;62.95;99534.16;5074880;28;20048;-59
2023/01/10 10:40:44;;;;;;;1.63;0.80;;;;;;;14.16;63.12;99521.72;5093247;28;20051;-58
2023/01/10 10:43:20;;;;;;;1.45;0.85;;;;;;;14.15;63.21;99544.16;5093124;28;20237;-58
2023/01/10 10:45:55;;;;;;;1.05;0.73;;;;;;;14.13;63.10;99543.47;5093652;28;20335;-59
2023/01/10 10:48:27;;;;;;;2.40;1.08;;;;;;;14.13;62.86;99550.66;5092707;28;20401;-59
2023/01/10 10:51:07;;;;;;;1.30;0.80;;;;;;;14.13;63.08;99553.34;5093074;28;20071;-59
2023/01/10 10:53:37;;;;;;;1.23;0.82;;;;;;;14.10;63.04;99551.78;5092905;28;20040;-59
2023/01/10 10:56:11;;;;;;;2.67;1.05;;;;;;;14.10;63.07;99564.34;5092900;28;20093;-59
2023/01/10 10:58:43;;;;;;;1.40;0.90;;;;;;;14.10;63.34;99567.88;5093061;28;20109;-59
2023/01/10 11:01:13;;;;;;;1.17;0.80;;;;;;;14.08;63.37;99572.47;5092792;28;20072;-59
2023/01/10 11:03:47;;;;;;;1.45;0.85;;;;;;;14.07;63.06;99570.78;5074701;28;20048;-59
2023/01/10 11:06:18;;;;;;;1.02;0.77;;;;;;;14.07;63.23;99586.03;5074596;28;20056;-59
2023/01/10 11:08:52;;;;;;;1.02;0.80;;;;;;;14.06;63.16;99587.00;5092846;28;20079;-59
2023/01/10 11:11:24;;;;;;;2.08;0.90;;;;;;;14.04;63.23;99588.00;5092835;28;20040;-59
2023/01/10 11:13:55;;;;;;;2.08;0.93;;;;;;;14.04;63.16;99597.88;5074349;28;20447;-59
2023/01/10 11:16:29;;;;;;;1.63;1.00;;;;;;;14.02;63.19;99598.00;5092629;28;20044;-59
2023/01/10 11:19:25;;;;;;;1.20;0.82;;;;;;;14.01;63.15;99608.88;5092539;28;20131;-59
2023/01/10 11:21:56;;;;;;;1.15;0.80;;;;;;;13.99;63.20;99609.00;5056853;28;20051;-59
2023/01/10 11:24:32;;;;;;;1.75;0.80;;;;;;;13.99;62.96;99613.47;5074176;28;20044;-59
2023/01/10 11:27:04;;;;;;;1.15;0.80;;;;;;;13.97;62.99;99596.69;5074197;28;20052;-59
2023/01/10 11:29:39;;;;;;;0.70;0.70;;;;;;;13.96;62.93;99606.56;5092454;28;20055;-59
2023/01/10 11:32:13;;;;;;;1.42;0.80;;;;;;;13.95;63.02;99617.41;5092613;28;20142;-59
2023/01/10 11:34:48;;;;;;;1.73;0.88;;;;;;;13.94;62.85;99619.25;5092423;28;20092;-58
2023/01/10 11:37:23;;;;;;;1.95;0.90;;;;;;;13.94;63.03;99618.41;5092331;28;20493;-60
2023/01/10 11:40:14;;;;;;;1.90;1.08;;;;;;;13.94;62.97;99621.09;5092246;28;20404;-60
2023/01/10 11:42:43;;;;;;;0.98;0.70;;;;;;;13.93;62.98;99617.56;5091952;28;20110;-60
2023/01/10 11:45:32;;;;;;;1.55;0.82;;;;;;;13.90;63.01;99622.34;5092173;28;20044;-60
2023/01/10 11:48:08;;;;;;;1.27;0.73;;;;;;;13.91;62.98;99618.66;5092234;28;20126;-60
2023/01/10 11:50:39;;;;;;;1.63;0.88;;;;;;;13.89;63.07;99628.66;5073805;28;20079;-59
2023/01/10 11:53:28;;;;;;;1.02;0.70;;;;;;;13.88;62.97;99621.59;5092022;28;20051;-59
2023/01/10 11:55:58;;;;;;;1.27;0.70;;;;;;;13.88;63.05;99637.66;5073698;28;20047;-58
2023/01/10 11:58:31;;;;;;;1.20;0.73;;;;;;;13.88;63.01;99640.34;5090930;28;20040;-58
2023/01/10 12:01:01;;;;;;;1.92;0.98;;;;;;;13.88;62.88;99648.38;5073715;28;20056;-59
2023/01/10 12:03:33;;;;;;;2.05;1.10;;;;;;;13.87;62.95;99647.53;5091815;28;20066;-60